Cambridge, IA (50046)

3:32 AM CST on December 05, 2016 (GMT -0600)
Ames Municipal | | Change Station

Elev 955 ft 41.99 °N, 93.62 °W | Updated 39 minutes ago

Clear
Clear
26 °F
Feels Like 20 °F
N
5
Wind Variable Wind from SE

Today
High -- | Low -- °F
--% Chance of Precip.
Yesterday
High -- | Low -- °F
Precip. -- in
Pressure 29.92 in
Visibility 2.5 miles
Clouds Clear
Windchill 20 °F
Dew Point 26 °F
Humidity 100%
Rainfall 0.00 in
Snow Depth Not available.
7:26 AM 4:43 PM
Waxing Crescent, 30% visible
METAR KAMW 050853Z AUTO 14004KT 2 1/2SM BR CLR M03/M03 A2989 RMK AO2 SLP131 I3001 T10331033 55000
Pressure 29.92 in
Visibility 2.5 miles
Clouds Clear
Windchill 20 °F
Dew Point 26 °F
Humidity 100%
Rainfall 0.00 in
Snow Depth Not available.
7:26 AM 4:43 PM
Waxing Crescent, 30% visible
METAR KAMW 050853Z AUTO 14004KT 2 1/2SM BR CLR M03/M03 A2989 RMK AO2 SLP131 I3001 T10331033 55000

10-Day Weather Forecast

Almanac

Astronomy

Dec. 05, 2016 Rise Set
Actual Time
Civil Twilight
Nautical Twilight
Astronomical Twilight
Moon
Length of Visible Light
Length of Day
Tomorrow will be .
, % of the Moon is Illuminated

Today's Extremes

State Highs State Lows

Community

WunderPhotos

Upload Photos

1,955,775 photos uploaded!

WunderBlog® & News

Nearby

Air Quality

  Air Quality AQ Index Pollutant
Not available.

Snow Depth

Station Depth Elevation

Earthquake Activity

City Distance Mag. Time & Date
Minimum magnitude displayed is 2.5.

Coastal Water Temperatures

Place Temperature

Stations

Nearby Weather Stations

Station Location Temp. Windchill Dew Point Humidity Wind Precip. Elev Updated Type
                   

Watches & Warnings

There are currently no watches in effect.